createdAt,value
2019-05-16T00:00:47.121Z,12.237244
2019-05-16T00:01:46.547Z,12.227173
2019-05-16T00:02:35.794Z,12.267456
2019-05-16T00:03:36.237Z,12.267456
2019-05-16T00:04:35.673Z,12.237244
2019-05-16T00:05:25.875Z,12.237244
2019-05-16T00:06:36.876Z,12.267456
2019-05-16T00:07:36.402Z,12.237244
2019-05-16T00:09:35.991Z,12.237244
2019-05-16T00:10:36.341Z,12.227173
2019-05-16T00:12:37.209Z,12.156677
2019-05-16T00:13:36.318Z,12.136536
2019-05-16T00:14:36.543Z,12.126465
2019-05-16T00:15:35.801Z,12.096252
2019-05-16T00:18:36.642Z,12.086182
2019-05-16T00:19:35.990Z,12.096252
2019-05-16T00:20:47.084Z,12.06604
2019-05-16T00:22:36.985Z,12.035828
2019-05-16T00:23:26.673Z,12.035828
2019-05-16T00:24:27.052Z,12.015686
2019-05-16T00:25:26.365Z,12.015686
2019-05-16T00:28:06.848Z,11.975403
2019-05-16T00:30:06.535Z,11.975403
2019-05-16T00:31:05.979Z,11.955261
2019-05-16T00:32:16.943Z,11.93512
2019-05-16T00:33:16.297Z,11.93512
2019-05-16T00:34:16.693Z,11.93512
2019-05-16T00:35:16.016Z,11.904907
2019-05-16T00:37:26.543Z,11.904907
2019-05-16T00:38:25.658Z,11.93512
2019-05-16T00:39:25.946Z,11.94519
2019-05-16T00:40:25.863Z,11.94519
2019-05-16T00:41:26.152Z,11.955261
2019-05-16T00:42:26.413Z,11.955261
2019-05-16T00:44:36.549Z,11.914978
2019-05-16T00:45:36.308Z,11.93512
2019-05-16T00:46:36.281Z,11.93512
2019-05-16T00:48:46.532Z,11.94519
2019-05-16T00:49:45.811Z,11.94519
2019-05-16T00:50:46.049Z,11.985474
2019-05-16T00:51:46.100Z,11.985474
2019-05-16T00:52:46.440Z,12.015686
2019-05-16T00:53:36.074Z,12.035828
2019-05-16T00:54:36.307Z,12.045898
2019-05-16T00:56:46.564Z,12.096252
2019-05-16T00:57:45.935Z,12.096252
2019-05-16T00:58:56.764Z,12.116394
2019-05-16T00:59:57.057Z,12.126465
2019-05-16T01:00:57.076Z,12.126465
2019-05-16T01:01:56.530Z,12.126465
2019-05-16T01:02:55.811Z,12.116394
2019-05-16T01:03:46.123Z,12.116394
2019-05-16T01:04:46.554Z,12.116394
2019-05-16T01:05:45.910Z,12.116394
2019-05-16T01:06:46.432Z,12.126465
2019-05-16T01:07:36.856Z,12.116394
2019-05-16T01:08:36.257Z,12.126465
2019-05-16T01:09:36.469Z,12.136536
2019-05-16T01:10:36.978Z,12.126465
2019-05-16T01:11:25.636Z,12.116394
2019-05-16T01:12:36.785Z,12.126465
2019-05-16T01:18:16.330Z,12.136536
2019-05-16T01:19:16.627Z,12.156677
2019-05-16T01:20:16.827Z,12.136536
2019-05-16T01:21:16.230Z,12.156677
2019-05-16T01:22:16.500Z,12.136536
2019-05-16T01:23:15.923Z,12.156677
2019-05-16T01:24:27.078Z,12.136536
2019-05-16T01:26:16.361Z,12.126465
2019-05-16T01:29:16.739Z,12.116394
2019-05-16T01:30:16.219Z,12.116394
2019-05-16T01:32:16.657Z,12.096252
2019-05-16T01:33:16.900Z,12.086182
2019-05-16T01:34:16.101Z,12.096252
2019-05-16T01:36:34.148Z,12.096252
2019-05-16T01:37:25.850Z,12.116394
2019-05-16T01:38:36.784Z,12.086182
2019-05-16T01:39:36.056Z,12.086182
2019-05-16T01:40:36.454Z,12.06604
2019-05-16T01:41:35.747Z,12.035828
2019-05-16T01:42:46.779Z,12.035828
2019-05-16T01:43:46.189Z,12.045898
2019-05-16T01:47:37.036Z,12.086182
2019-05-16T01:48:26.769Z,12.086182
2019-05-16T01:49:25.918Z,12.096252
2019-05-16T01:50:26.329Z,12.116394
2019-05-16T01:51:26.710Z,12.116394
2019-05-16T01:52:26.861Z,12.126465
2019-05-16T01:54:15.932Z,12.136536
2019-05-16T01:56:15.824Z,12.156677
2019-05-16T01:57:15.932Z,12.156677
2019-05-16T01:58:16.457Z,12.156677
2019-05-16T01:59:15.998Z,12.156677
2019-05-16T02:00:17.166Z,12.156677
2019-05-16T02:01:16.517Z,12.136536
2019-05-16T02:02:06.169Z,12.156677
2019-05-16T02:02:55.924Z,12.156677
2019-05-16T02:03:56.475Z,12.156677
2019-05-16T02:04:56.950Z,12.166748
2019-05-16T02:05:56.452Z,12.18689
2019-05-16T02:06:56.207Z,12.18689
2019-05-16T02:07:56.296Z,12.18689
2019-05-16T02:08:55.825Z,12.166748
2019-05-16T02:09:56.133Z,12.166748
2019-05-16T02:10:56.160Z,12.166748
2019-05-16T02:11:56.616Z,12.166748
2019-05-16T02:12:56.043Z,12.166748
2019-05-16T02:13:56.473Z,12.166748
2019-05-16T02:14:56.607Z,12.18689
2019-05-16T02:15:57.028Z,12.18689
2019-05-16T02:16:45.680Z,12.18689
2019-05-16T02:17:46.066Z,12.166748
2019-05-16T02:21:36.711Z,12.126465
2019-05-16T02:22:26.410Z,12.116394
2019-05-16T02:23:25.777Z,12.086182
2019-05-16T02:24:26.422Z,12.06604
2019-05-16T02:25:25.626Z,12.045898
2019-05-16T02:26:26.050Z,12.045898
2019-05-16T02:28:17.512Z,12.045898
2019-05-16T02:28:58.502Z,12.035828
2019-05-16T02:29:57.954Z,12.035828
2019-05-16T02:30:47.793Z,12.035828
2019-05-16T02:31:48.179Z,12.045898
2019-05-16T02:32:38.564Z,12.045898
2019-05-16T02:33:37.733Z,12.045898
2019-05-16T02:34:48.853Z,12.035828
2019-05-16T02:35:37.580Z,12.035828
2019-05-16T02:37:30.707Z,12.015686
2019-05-16T02:38:39.069Z,12.005615
2019-05-16T02:39:27.576Z,12.005615
2019-05-16T02:40:38.907Z,11.985474
2019-05-16T02:41:28.230Z,11.975403
2019-05-16T02:43:09.465Z,11.904907
2019-05-16T02:44:08.936Z,11.854553
2019-05-16T02:46:08.616Z,11.804199
2019-05-16T02:47:07.742Z,11.784058
2019-05-16T02:48:07.885Z,11.753845
2019-05-16T02:49:18.883Z,11.753845
2019-05-16T02:50:19.111Z,11.753845
2019-05-16T02:51:18.361Z,11.753845
2019-05-16T02:52:18.563Z,11.753845
2019-05-16T02:53:18.919Z,11.733704
2019-05-16T02:54:18.440Z,11.733704
2019-05-16T02:56:28.605Z,11.703491
2019-05-16T02:57:18.379Z,11.69342
2019-05-16T02:59:17.710Z,11.673279
2019-05-16T03:00:18.128Z,11.69342
2019-05-16T03:01:18.329Z,11.69342
2019-05-16T03:02:17.637Z,11.673279
2019-05-16T03:03:28.577Z,11.69342
2019-05-16T03:04:27.806Z,11.673279
2019-05-16T03:05:38.744Z,11.673279
2019-05-16T03:06:38.230Z,11.673279
2019-05-16T03:08:37.922Z,11.653137
2019-05-16T03:09:38.189Z,11.653137
2019-05-16T03:11:38.859Z,11.653137
2019-05-16T03:12:38.268Z,11.643066
2019-05-16T03:14:38.939Z,11.643066
2019-05-16T03:16:38.698Z,11.622925
2019-05-16T03:17:37.697Z,11.622925
2019-05-16T03:18:48.958Z,11.622925
2019-05-16T03:20:48.465Z,11.582642
2019-05-16T03:21:47.973Z,11.522217
2019-05-16T03:22:59.110Z,11.512146
2019-05-16T03:26:48.493Z,11.512146
2019-05-16T03:27:48.682Z,11.512146
2019-05-16T03:28:48.861Z,11.522217
2019-05-16T03:30:38.333Z,11.512146
2019-05-16T03:32:28.605Z,11.461792
2019-05-16T03:33:34.476Z,11.44165
2019-05-16T03:34:28.751Z,11.401367
2019-05-16T03:35:18.920Z,11.371155
2019-05-16T03:38:17.854Z,11.290588
2019-05-16T03:39:18.331Z,11.280518
2019-05-16T03:41:18.941Z,11.220093
2019-05-16T03:43:08.542Z,11.210022
2019-05-16T03:43:58.244Z,11.210022
2019-05-16T03:45:59.013Z,11.210022
2019-05-16T03:47:58.717Z,11.210022
2019-05-16T03:48:59.103Z,11.18988
2019-05-16T03:50:47.710Z,11.169739
2019-05-16T03:51:47.907Z,11.17981
2019-05-16T03:53:37.587Z,11.17981
2019-05-16T03:54:38.895Z,11.17981
2019-05-16T03:56:27.878Z,11.18988
2019-05-16T03:58:17.918Z,11.17981
2019-05-16T03:59:18.575Z,11.169739
2019-05-16T04:00:17.890Z,11.149597
2019-05-16T04:01:18.041Z,11.099243
2019-05-16T04:03:29.791Z,11.069031
2019-05-16T04:04:08.589Z,11.05896
2019-05-16T04:05:08.000Z,11.069031
2019-05-16T04:06:18.884Z,11.069031
2019-05-16T04:07:18.376Z,11.109314
2019-05-16T04:09:28.645Z,11.099243
2019-05-16T04:10:27.883Z,11.089172
2019-05-16T04:11:39.277Z,11.069031
2019-05-16T04:12:38.327Z,11.069031
2019-05-16T04:13:37.834Z,11.099243
2019-05-16T04:14:37.927Z,11.099243
2019-05-16T04:15:37.967Z,11.099243
2019-05-16T04:18:28.327Z,11.018677
2019-05-16T04:19:28.530Z,11.018677
2019-05-16T04:20:27.642Z,11.018677
2019-05-16T04:21:28.458Z,11.028748
2019-05-16T04:23:38.799Z,10.988464
2019-05-16T04:24:39.112Z,10.968323
2019-05-16T04:30:18.674Z,10.958252
2019-05-16T04:31:18.462Z,10.958252
2019-05-16T04:33:08.236Z,10.968323
2019-05-16T04:34:08.622Z,10.988464
2019-05-16T04:35:07.954Z,10.93811
2019-05-16T04:36:07.840Z,10.93811
2019-05-16T04:36:57.935Z,10.907898
2019-05-16T04:39:47.807Z,10.847473
2019-05-16T04:40:48.181Z,10.847473
2019-05-16T04:41:37.776Z,10.847473
2019-05-16T04:42:38.554Z,10.847473
2019-05-16T04:43:38.716Z,10.837402
2019-05-16T04:44:38.236Z,10.837402
2019-05-16T04:45:38.140Z,10.817261
2019-05-16T04:46:37.788Z,10.837402
2019-05-16T04:47:38.043Z,10.847473
2019-05-16T04:49:48.567Z,10.847473
2019-05-16T04:50:48.226Z,10.847473
2019-05-16T04:51:48.622Z,10.857544
2019-05-16T04:52:38.616Z,10.857544
2019-05-16T04:53:38.828Z,10.847473
2019-05-16T04:54:38.224Z,10.837402
2019-05-16T04:55:39.063Z,10.857544
2019-05-16T04:57:28.164Z,10.887756
2019-05-16T04:58:28.687Z,10.93811
2019-05-16T04:59:28.141Z,10.958252
2019-05-16T05:01:08.165Z,10.968323
2019-05-16T05:02:09.125Z,10.998535
2019-05-16T05:03:08.777Z,11.028748
2019-05-16T05:04:11.465Z,11.089172
2019-05-16T05:05:08.927Z,11.089172
2019-05-16T05:06:57.863Z,11.109314
2019-05-16T05:07:58.760Z,11.149597
2019-05-16T05:09:00.112Z,11.139526
2019-05-16T05:10:48.275Z,11.149597
2019-05-16T05:11:48.930Z,11.169739
2019-05-16T05:12:48.574Z,11.149597
2019-05-16T05:13:48.076Z,11.139526
2019-05-16T05:14:48.222Z,11.149597
2019-05-16T05:15:48.308Z,11.169739
2019-05-16T05:16:48.203Z,11.139526
2019-05-16T05:17:47.842Z,11.149597
2019-05-16T05:18:48.700Z,11.169739
2019-05-16T05:19:48.034Z,11.18988
2019-05-16T05:20:49.002Z,11.210022
2019-05-16T05:21:48.738Z,11.220093
2019-05-16T05:22:37.567Z,11.240234
2019-05-16T05:23:38.245Z,11.270447
2019-05-16T05:24:38.387Z,11.290588
2019-05-16T05:26:38.933Z,11.320801
2019-05-16T05:27:38.768Z,11.320801
2019-05-16T05:28:27.848Z,11.280518
2019-05-16T05:30:38.735Z,11.240234
2019-05-16T05:32:38.934Z,11.240234
2019-05-16T05:33:27.720Z,11.240234
2019-05-16T05:34:28.315Z,11.280518
2019-05-16T05:35:28.352Z,11.320801
2019-05-16T05:36:27.671Z,11.280518
2019-05-16T05:37:27.531Z,11.240234
2019-05-16T05:39:17.858Z,11.169739
2019-05-16T05:40:17.741Z,11.17981
2019-05-16T05:43:18.887Z,11.169739
2019-05-16T05:45:08.702Z,11.17981
2019-05-16T05:46:08.737Z,11.18988
2019-05-16T05:47:08.466Z,11.210022
2019-05-16T05:48:08.261Z,11.220093
2019-05-16T05:49:08.004Z,11.240234
2019-05-16T05:50:08.678Z,11.240234
2019-05-16T05:51:08.521Z,11.240234
2019-05-16T05:51:58.349Z,11.220093
2019-05-16T05:52:58.485Z,11.240234
2019-05-16T05:53:48.631Z,11.220093
2019-05-16T05:55:37.858Z,11.240234
2019-05-16T05:56:37.546Z,11.280518
2019-05-16T05:57:37.814Z,11.280518
2019-05-16T05:58:38.337Z,11.320801
2019-05-16T06:00:27.619Z,11.330872
2019-05-16T06:05:38.838Z,11.330872
2019-05-16T06:06:38.617Z,11.330872
2019-05-16T06:07:27.710Z,11.330872
2019-05-16T06:08:28.274Z,11.330872
2019-05-16T06:09:29.910Z,11.280518
2019-05-16T06:10:28.290Z,11.210022
2019-05-16T06:11:18.179Z,11.210022
2019-05-16T06:12:18.538Z,11.220093
2019-05-16T06:14:07.588Z,11.18988
2019-05-16T06:15:09.977Z,11.169739
2019-05-16T06:16:08.530Z,11.169739
2019-05-16T06:17:08.683Z,11.169739
2019-05-16T06:18:08.408Z,11.210022
2019-05-16T06:19:08.033Z,11.210022
2019-05-16T06:20:08.593Z,11.220093
2019-05-16T06:24:58.601Z,11.250305
2019-05-16T06:25:47.588Z,11.250305
2019-05-16T06:26:58.790Z,11.250305
2019-05-16T06:27:48.710Z,11.250305
2019-05-16T06:28:47.909Z,11.250305
2019-05-16T06:29:47.523Z,11.220093
2019-05-16T06:30:48.458Z,11.18988
2019-05-16T06:33:38.702Z,11.210022
2019-05-16T06:34:28.027Z,11.210022
2019-05-16T06:35:17.960Z,11.210022
2019-05-16T06:36:18.038Z,11.240234
2019-05-16T06:37:18.191Z,11.270447
2019-05-16T06:38:18.346Z,11.250305
2019-05-16T06:39:08.792Z,11.250305
2019-05-16T06:41:48.147Z,11.210022
2019-05-16T06:43:27.574Z,11.18988
2019-05-16T06:45:29.894Z,11.18988
2019-05-16T06:46:08.681Z,11.18988
2019-05-16T06:47:16.601Z,11.210022
2019-05-16T06:47:58.691Z,11.210022
2019-05-16T06:49:48.807Z,11.280518
2019-05-16T06:50:38.029Z,11.290588
2019-05-16T06:52:17.534Z,11.270447
2019-05-16T06:57:08.126Z,11.401367
2019-05-16T06:58:08.105Z,11.44165
2019-05-16T06:59:08.116Z,11.471863
2019-05-16T07:01:00.288Z,11.552429
2019-05-16T07:01:58.183Z,11.582642
2019-05-16T07:02:58.131Z,11.602783
2019-05-16T07:03:57.984Z,11.602783
2019-05-16T07:04:58.809Z,11.602783
2019-05-16T07:05:47.860Z,11.582642
2019-05-16T07:06:55.797Z,11.552429
2019-05-16T07:07:48.663Z,11.552429
2019-05-16T07:08:37.765Z,11.552429
2019-05-16T07:09:38.536Z,11.542358
2019-05-16T07:10:28.563Z,11.492004
2019-05-16T07:11:28.451Z,11.44165
2019-05-16T07:12:31.334Z,11.461792
2019-05-16T07:13:28.091Z,11.44165
2019-05-16T07:14:28.885Z,11.391296
2019-05-16T07:15:27.755Z,11.401367
2019-05-16T07:16:27.763Z,11.401367
2019-05-16T07:19:38.591Z,11.43158
2019-05-16T07:22:28.363Z,11.512146
2019-05-16T07:23:18.409Z,11.522217
2019-05-16T07:26:58.062Z,11.643066
2019-05-16T07:27:48.230Z,11.673279
2019-05-16T07:28:48.865Z,11.69342
2019-05-16T07:29:48.407Z,11.723633
2019-05-16T07:33:18.342Z,11.794128
2019-05-16T07:34:18.406Z,11.794128
2019-05-16T07:35:18.240Z,11.804199
2019-05-16T07:36:18.427Z,11.804199
2019-05-16T07:43:37.699Z,11.864624
2019-05-16T07:44:38.607Z,11.864624
2019-05-16T07:45:28.596Z,11.884766
2019-05-16T07:46:28.757Z,11.854553
2019-05-16T07:47:28.630Z,11.834412
2019-05-16T07:48:28.495Z,11.854553
2019-05-16T07:49:28.298Z,11.864624
2019-05-16T07:50:17.657Z,11.854553
2019-05-16T07:51:18.217Z,11.904907
2019-05-16T07:53:18.936Z,11.884766
2019-05-16T07:54:18.907Z,11.804199
2019-05-16T07:55:08.102Z,11.824341
2019-05-16T07:55:57.937Z,11.824341
2019-05-16T07:58:48.384Z,11.864624
2019-05-16T08:00:49.108Z,11.93512
2019-05-16T08:03:17.545Z,12.06604
2019-05-16T08:04:17.616Z,12.116394
2019-05-16T08:05:18.384Z,12.166748
2019-05-16T08:08:08.316Z,12.31781
2019-05-16T08:09:08.993Z,12.378235
2019-05-16T08:10:08.277Z,12.388306
2019-05-16T08:11:09.053Z,12.408447
2019-05-16T08:13:48.377Z,12.529297
2019-05-16T08:14:38.569Z,12.539368
2019-05-16T08:15:27.730Z,12.539368
2019-05-16T08:16:27.715Z,12.519226
2019-05-16T08:17:28.904Z,12.489014
2019-05-16T08:20:08.217Z,12.44873
2019-05-16T08:21:08.247Z,12.378235
2019-05-16T08:24:37.929Z,12.368164
2019-05-16T08:25:28.570Z,12.388306
2019-05-16T08:26:18.306Z,12.44873
2019-05-16T08:28:08.700Z,12.458801
2019-05-16T08:29:09.788Z,12.468872
2019-05-16T08:29:59.036Z,12.489014
2019-05-16T08:31:49.250Z,12.499084
2019-05-16T08:32:48.987Z,12.499084
2019-05-16T08:33:48.859Z,12.519226
2019-05-16T08:34:37.861Z,12.499084
2019-05-16T08:35:38.009Z,12.529297
2019-05-16T08:36:38.131Z,12.529297
2019-05-16T08:38:17.744Z,12.559509
2019-05-16T08:39:18.772Z,12.529297
2019-05-16T08:42:09.416Z,12.458801
2019-05-16T08:43:08.718Z,12.418518
2019-05-16T08:43:57.938Z,12.418518
2019-05-16T08:44:58.267Z,12.408447
2019-05-16T08:46:54.400Z,12.44873
2019-05-16T08:47:48.809Z,12.499084
2019-05-16T08:48:48.878Z,12.529297
2019-05-16T08:49:38.781Z,12.56958
2019-05-16T08:51:28.862Z,12.680359
2019-05-16T08:52:17.979Z,12.710571
2019-05-16T08:54:08.459Z,12.831421
2019-05-16T08:55:08.450Z,12.891846
2019-05-16T08:56:08.823Z,12.952271
2019-05-16T08:57:08.506Z,13.002625
2019-05-16T08:57:58.859Z,13.042908
2019-05-16T08:58:58.927Z,13.083191
2019-05-16T08:59:47.843Z,13.153687
2019-05-16T09:00:49.314Z,13.153687
2019-05-16T09:02:38.512Z,13.153687
2019-05-16T09:03:29.422Z,13.204041
2019-05-16T09:05:18.648Z,13.254395
2019-05-16T09:06:49.097Z,13.254395
2019-05-16T09:09:11.902Z,13.19397
2019-05-16T09:09:56.112Z,13.204041
2019-05-16T09:11:01.507Z,13.19397
2019-05-16T09:11:45.722Z,13.173828
2019-05-16T09:12:34.683Z,13.204041
2019-05-16T09:14:24.925Z,13.204041
2019-05-16T09:15:14.422Z,13.224182
2019-05-16T09:16:15.526Z,13.224182
2019-05-16T09:17:04.771Z,13.234253
2019-05-16T09:18:54.844Z,13.153687
2019-05-16T09:19:44.823Z,13.123474
2019-05-16T09:20:47.055Z,13.173828
2019-05-16T09:21:35.337Z,13.224182
2019-05-16T09:22:25.519Z,13.284607
2019-05-16T09:23:15.199Z,13.32489
2019-05-16T09:24:54.785Z,13.405457
2019-05-16T09:25:45.863Z,13.455811
2019-05-16T09:27:35.289Z,13.616943
2019-05-16T09:28:24.821Z,13.657227
2019-05-16T09:29:24.832Z,13.707581
2019-05-16T09:30:14.255Z,13.747864
2019-05-16T09:31:04.459Z,13.747864
2019-05-16T09:32:08.731Z,13.778076
2019-05-16T09:35:25.009Z,13.747864
2019-05-16T09:37:05.486Z,13.848572
2019-05-16T09:37:44.921Z,13.919067
2019-05-16T09:38:45.158Z,13.999634
2019-05-16T09:39:45.412Z,14.029846
2019-05-16T09:40:35.754Z,13.999634
2019-05-16T09:41:24.622Z,14.019775
2019-05-16T09:42:14.687Z,13.989563
2019-05-16T09:43:55.477Z,13.848572
2019-05-16T09:44:44.967Z,13.808289
2019-05-16T09:45:35.533Z,13.778076
2019-05-16T09:47:14.716Z,13.667297
2019-05-16T09:48:05.008Z,13.637085
2019-05-16T09:49:16.510Z,13.657227
2019-05-16T09:49:55.417Z,13.667297
2019-05-16T09:50:44.645Z,13.657227
2019-05-16T09:51:35.020Z,13.657227
2019-05-16T09:54:35.534Z,13.69751
2019-05-16T09:55:24.677Z,13.69751
2019-05-16T09:56:24.788Z,13.727722
2019-05-16T09:57:14.932Z,13.69751
2019-05-16T09:58:15.129Z,13.707581
2019-05-16T09:59:14.967Z,13.707581
2019-05-16T10:00:15.252Z,13.747864
2019-05-16T10:01:54.538Z,13.727722
2019-05-16T10:02:55.458Z,13.747864
2019-05-16T10:03:44.301Z,13.768005
2019-05-16T10:04:55.500Z,13.747864
2019-05-16T10:05:44.299Z,13.707581
2019-05-16T10:06:34.731Z,13.69751
2019-05-16T10:07:35.678Z,13.707581
2019-05-16T10:08:35.255Z,13.768005
2019-05-16T10:09:41.870Z,13.768005
2019-05-16T10:10:34.853Z,13.747864
2019-05-16T10:11:45.974Z,13.707581
2019-05-16T10:13:44.583Z,13.69751
2019-05-16T10:15:44.751Z,13.667297
2019-05-16T10:16:55.583Z,13.657227
2019-05-16T10:17:45.047Z,13.657227
2019-05-16T10:18:45.214Z,13.667297
2019-05-16T10:19:45.207Z,13.667297
2019-05-16T10:20:34.493Z,13.687439
2019-05-16T10:21:34.315Z,13.667297
2019-05-16T10:22:35.046Z,13.616943
2019-05-16T10:23:26.235Z,13.616943
2019-05-16T10:25:54.462Z,13.627014
2019-05-16T10:26:54.974Z,13.657227
2019-05-16T10:28:55.162Z,13.69751
2019-05-16T10:29:45.560Z,13.687439
2019-05-16T10:30:35.354Z,13.69751
2019-05-16T10:31:38.437Z,13.687439
2019-05-16T10:32:25.216Z,13.667297
2019-05-16T10:33:14.329Z,13.637085
2019-05-16T10:34:15.232Z,13.596802
2019-05-16T10:36:05.587Z,13.546448
2019-05-16T10:36:54.913Z,13.546448
2019-05-16T10:39:04.514Z,13.516235
2019-05-16T10:40:15.596Z,13.475952
2019-05-16T10:43:15.066Z,13.415527
2019-05-16T10:44:04.157Z,13.405457
2019-05-16T10:45:05.641Z,13.385315
2019-05-16T10:49:54.203Z,13.334961
2019-05-16T10:51:05.465Z,13.264465
2019-05-16T10:51:55.517Z,13.234253
2019-05-16T10:54:25.431Z,13.234253
2019-05-16T10:55:25.612Z,13.234253
2019-05-16T10:58:04.841Z,13.204041
2019-05-16T10:59:25.675Z,13.204041
2019-05-16T11:00:06.368Z,13.19397
2019-05-16T11:01:14.794Z,13.173828
2019-05-16T11:01:45.065Z,13.123474
2019-05-16T11:02:34.814Z,13.113403
2019-05-16T11:05:26.694Z,13.083191
2019-05-16T11:06:06.507Z,13.052979
2019-05-16T11:09:14.819Z,13.052979
2019-05-16T11:10:04.579Z,13.042908
2019-05-16T11:11:04.184Z,13.032837
2019-05-16T11:11:54.711Z,13.012695
2019-05-16T11:13:05.457Z,13.002625
2019-05-16T11:16:55.522Z,12.932129
2019-05-16T11:19:44.180Z,12.922058
2019-05-16T11:23:16.289Z,12.932129
2019-05-16T11:25:18.174Z,12.962341
2019-05-16T11:29:14.334Z,13.002625
2019-05-16T11:30:25.532Z,13.002625
2019-05-16T11:31:15.389Z,13.032837
2019-05-16T11:32:04.432Z,13.032837
2019-05-16T11:33:05.127Z,13.042908
2019-05-16T11:33:54.868Z,13.07312
2019-05-16T11:35:44.763Z,13.113403
2019-05-16T11:37:25.473Z,13.113403
2019-05-16T11:38:15.099Z,13.103333
2019-05-16T11:39:15.026Z,13.052979
2019-05-16T11:41:25.003Z,13.07312
2019-05-16T11:42:25.436Z,13.083191
2019-05-16T11:43:25.616Z,13.103333
2019-05-16T11:44:15.136Z,13.083191
2019-05-16T11:45:04.674Z,13.123474
2019-05-16T11:47:05.268Z,13.224182
2019-05-16T11:48:54.683Z,13.294678
2019-05-16T11:49:54.776Z,13.334961
2019-05-16T11:50:45.048Z,13.385315
2019-05-16T11:51:35.852Z,13.415527
2019-05-16T11:53:15.076Z,13.455811
2019-05-16T11:55:04.771Z,13.627014
2019-05-16T11:58:15.180Z,13.969421
2019-05-16T12:00:05.602Z,14.140625
2019-05-16T12:00:54.857Z,14.180908
2019-05-16T12:04:05.530Z,14.402466
2019-05-16T12:05:55.333Z,14.503174
2019-05-16T12:06:55.281Z,14.543457
2019-05-16T12:07:45.160Z,14.523315
2019-05-16T12:08:44.539Z,14.503174
2019-05-16T12:09:47.736Z,14.462891
2019-05-16T12:10:44.787Z,14.45282
2019-05-16T12:12:34.392Z,14.392395
2019-05-16T12:13:45.157Z,14.372253
2019-05-16T12:14:34.562Z,14.362183
2019-05-16T12:15:34.432Z,14.362183
2019-05-16T12:16:35.521Z,14.362183
2019-05-16T12:18:35.027Z,14.392395
2019-05-16T12:19:37.418Z,14.432678
2019-05-16T12:23:45.014Z,14.624023
2019-05-16T12:25:45.261Z,14.603882
2019-05-16T12:26:45.497Z,14.603882
2019-05-16T12:27:45.547Z,14.644165
2019-05-16T12:29:34.454Z,14.573669
2019-05-16T12:31:14.587Z,14.462891
2019-05-16T12:32:25.466Z,14.372253
2019-05-16T12:33:15.589Z,14.33197
2019-05-16T12:35:25.354Z,14.241333
2019-05-16T12:36:15.204Z,14.20105
2019-05-16T12:37:04.968Z,14.180908
2019-05-16T12:38:05.104Z,14.150696
2019-05-16T12:39:05.578Z,14.120483
2019-05-16T12:41:04.741Z,13.959351
2019-05-16T12:42:04.924Z,13.878784
2019-05-16T12:43:15.639Z,13.768005
2019-05-16T12:44:05.039Z,13.687439
2019-05-16T12:45:04.875Z,13.627014
2019-05-16T12:46:04.929Z,13.616943
2019-05-16T12:50:25.333Z,13.596802
2019-05-16T12:51:15.142Z,13.536377
2019-05-16T12:52:04.549Z,13.486023
2019-05-16T12:54:54.425Z,13.415527
2019-05-16T12:55:54.527Z,13.334961
2019-05-16T12:56:54.822Z,13.32489
2019-05-16T12:57:56.067Z,13.304749
2019-05-16T12:59:49.894Z,13.294678
2019-05-16T13:00:34.580Z,13.294678
2019-05-16T13:02:04.365Z,13.32489
2019-05-16T13:03:04.730Z,13.32489
2019-05-16T13:04:55.083Z,13.375244
2019-05-16T13:05:54.770Z,13.385315
2019-05-16T13:06:55.377Z,13.405457
2019-05-16T13:08:55.159Z,13.355103
2019-05-16T13:09:44.302Z,13.375244
2019-05-16T13:10:55.166Z,13.355103
2019-05-16T13:11:55.355Z,13.32489
2019-05-16T13:13:59.345Z,13.294678
2019-05-16T13:15:44.935Z,13.264465
2019-05-16T13:16:44.785Z,13.204041
2019-05-16T13:17:44.822Z,13.143616
2019-05-16T13:18:45.265Z,13.113403
2019-05-16T13:19:36.519Z,13.083191
2019-05-16T13:20:35.270Z,13.052979
2019-05-16T13:21:35.439Z,13.042908
2019-05-16T13:22:35.593Z,13.042908
2019-05-16T13:23:24.538Z,13.042908
2019-05-16T13:24:35.483Z,13.042908
2019-05-16T13:25:24.896Z,13.032837
2019-05-16T13:27:19.457Z,13.012695
2019-05-16T13:29:04.666Z,13.012695
2019-05-16T13:29:55.280Z,13.032837
2019-05-16T13:30:55.233Z,13.012695
2019-05-16T13:31:45.187Z,13.012695
2019-05-16T13:33:34.261Z,13.002625
2019-05-16T13:34:34.370Z,12.932129
2019-05-16T13:35:34.400Z,12.932129
2019-05-16T13:36:35.654Z,12.922058
2019-05-16T13:38:24.932Z,12.962341
2019-05-16T13:42:45.497Z,13.083191
2019-05-16T13:44:55.350Z,13.153687
2019-05-16T13:45:55.158Z,13.19397
2019-05-16T13:46:44.478Z,13.204041
2019-05-16T13:47:45.579Z,13.254395
2019-05-16T13:50:44.920Z,13.32489
2019-05-16T13:52:55.541Z,13.375244
2019-05-16T13:54:34.187Z,13.405457
2019-05-16T13:56:45.557Z,13.455811
2019-05-16T13:58:44.331Z,13.475952
2019-05-16T14:00:45.360Z,13.506165
2019-05-16T14:01:34.492Z,13.486023
2019-05-16T14:03:45.547Z,13.475952
2019-05-16T14:04:34.945Z,13.475952
2019-05-16T14:05:35.537Z,13.475952
2019-05-16T14:06:14.937Z,13.486023
2019-05-16T14:07:14.585Z,13.516235
2019-05-16T14:08:14.733Z,13.516235
2019-05-16T14:10:44.740Z,13.516235
2019-05-16T14:12:15.415Z,13.506165
2019-05-16T14:13:05.029Z,13.506165
2019-05-16T14:13:54.159Z,13.486023
2019-05-16T14:15:44.839Z,13.385315
2019-05-16T14:16:44.715Z,13.355103
2019-05-16T14:17:46.203Z,13.375244
2019-05-16T14:18:35.299Z,13.375244
2019-05-16T14:19:24.981Z,13.355103
2019-05-16T14:20:15.661Z,13.304749
2019-05-16T14:23:25.734Z,13.304749
2019-05-16T14:24:15.324Z,13.304749
2019-05-16T14:25:04.286Z,13.304749
2019-05-16T14:27:24.367Z,13.355103
2019-05-16T14:28:14.558Z,13.375244
2019-05-16T14:29:25.381Z,13.405457
2019-05-16T14:30:25.629Z,13.334961
2019-05-16T14:32:14.934Z,13.284607
2019-05-16T14:33:25.459Z,13.294678
2019-05-16T14:34:14.911Z,13.32489
2019-05-16T14:35:05.005Z,13.32489
2019-05-16T14:37:15.257Z,13.375244
2019-05-16T14:39:57.598Z,13.415527
2019-05-16T14:41:05.439Z,13.435669
2019-05-16T14:41:54.350Z,13.435669
2019-05-16T14:42:55.438Z,13.455811
2019-05-16T14:43:44.526Z,13.44574
2019-05-16T14:45:05.991Z,13.455811
2019-05-16T14:45:55.063Z,13.486023
2019-05-16T14:47:55.227Z,13.486023
2019-05-16T14:50:54.823Z,13.32489
2019-05-16T14:53:15.488Z,13.224182
2019-05-16T14:54:04.577Z,13.204041
2019-05-16T14:55:15.345Z,13.153687
2019-05-16T14:56:04.390Z,13.143616
2019-05-16T14:58:05.011Z,13.143616
2019-05-16T15:00:15.533Z,13.103333
2019-05-16T15:01:15.317Z,13.07312
2019-05-16T15:02:15.427Z,13.07312
2019-05-16T15:03:15.645Z,13.07312
2019-05-16T15:04:04.664Z,13.052979
2019-05-16T15:06:25.061Z,13.042908
2019-05-16T15:07:25.488Z,13.042908
2019-05-16T15:09:35.561Z,12.922058
2019-05-16T15:10:35.416Z,12.891846
2019-05-16T15:12:35.012Z,12.861633
2019-05-16T15:14:34.848Z,12.831421